sensor_id;sensor_type;location;lat;lon;timestamp;pressure;altitude;pressure_sealevel;temperature;humidity
66668;BME280;57205;51.438;-2.006;2023-07-13T00:00:11;100847.94;;;14.90;100.00
66668;BME280;57205;51.438;-2.006;2023-07-13T00:02:37;100844.94;;;14.91;100.00
66668;BME280;57205;51.438;-2.006;2023-07-13T00:05:03;100841.13;;;14.92;100.00
66668;BME280;57205;51.438;-2.006;2023-07-13T00:07:28;100832.53;;;14.90;100.00
66668;BME280;57205;51.438;-2.006;2023-07-13T00:09:54;100830.66;;;14.91;100.00
66668;BME280;57205;51.438;-2.006;2023-07-13T00:12:28;100829.06;;;14.90;100.00
66668;BME280;57205;51.438;-2.006;2023-07-13T00:14:57;100835.53;;;14.89;100.00
66668;BME280;57205;51.438;-2.006;2023-07-13T00:17:23;100826.94;;;14.87;100.00
66668;BME280;57205;51.438;-2.006;2023-07-13T00:19:49;100824.28;;;14.82;100.00
66668;BME280;57205;51.438;-2.006;2023-07-13T00:22:14;100831.31;;;14.83;100.00
66668;BME280;57205;51.438;-2.006;2023-07-13T00:24:40;100831.31;;;14.83;100.00
66668;BME280;57205;51.438;-2.006;2023-07-13T00:27:08;100828.31;;;14.84;100.00
66668;BME280;57205;51.438;-2.006;2023-07-13T00:29:34;100831.75;;;14.90;100.00
66668;BME280;57205;51.438;-2.006;2023-07-13T00:32:05;100827.44;;;14.89;100.00
66668;BME280;57205;51.438;-2.006;2023-07-13T00:34:31;100830.94;;;14.89;100.00
66668;BME280;57205;51.438;-2.006;2023-07-13T00:36:57;100821.53;;;14.87;100.00
66668;BME280;57205;51.438;-2.006;2023-07-13T00:39:23;100823.22;;;14.83;100.00
66668;BME280;57205;51.438;-2.006;2023-07-13T00:41:48;100823.25;;;14.78;100.00
66668;BME280;57205;51.438;-2.006;2023-07-13T00:44:15;100828.72;;;14.73;100.00
66668;BME280;57205;51.438;-2.006;2023-07-13T00:46:40;100826.09;;;14.68;100.00
66668;BME280;57205;51.438;-2.006;2023-07-13T00:49:10;100822.91;;;14.60;100.00
66668;BME280;57205;51.438;-2.006;2023-07-13T00:51:46;100825.66;;;14.55;100.00
66668;BME280;57205;51.438;-2.006;2023-07-13T00:54:18;100829.22;;;14.51;100.00
66668;BME280;57205;51.438;-2.006;2023-07-13T00:56:48;100829.78;;;14.48;100.00
66668;BME280;57205;51.438;-2.006;2023-07-13T00:59:15;100828.19;;;14.47;100.00
66668;BME280;57205;51.438;-2.006;2023-07-13T01:01:42;100830.34;;;14.45;100.00
66668;BME280;57205;51.438;-2.006;2023-07-13T01:04:08;100829.53;;;14.44;100.00
66668;BME280;57205;51.438;-2.006;2023-07-13T01:06:37;100829.53;;;14.44;100.00
66668;BME280;57205;51.438;-2.006;2023-07-13T01:09:04;100835.22;;;14.43;100.00
66668;BME280;57205;51.438;-2.006;2023-07-13T01:11:30;100835.50;;;14.41;100.00
66668;BME280;57205;51.438;-2.006;2023-07-13T01:13:56;100825.81;;;14.40;100.00
66668;BME280;57205;51.438;-2.006;2023-07-13T01:16:27;100829.00;;;14.42;100.00
66668;BME280;57205;51.438;-2.006;2023-07-13T01:18:54;100824.16;;;14.44;100.00
66668;BME280;57205;51.438;-2.006;2023-07-13T01:21:23;100823.09;;;14.45;100.00
66668;BME280;57205;51.438;-2.006;2023-07-13T01:23:48;100821.69;;;14.48;100.00
66668;BME280;57205;51.438;-2.006;2023-07-13T01:26:14;100816.81;;;14.50;100.00
66668;BME280;57205;51.438;-2.006;2023-07-13T01:28:39;100811.97;;;14.52;100.00
66668;BME280;57205;51.438;-2.006;2023-07-13T01:31:04;100814.13;;;14.50;100.00
66668;BME280;57205;51.438;-2.006;2023-07-13T01:33:30;100803.94;;;14.47;100.00
66668;BME280;57205;51.438;-2.006;2023-07-13T01:35:56;100816.59;;;14.46;100.00
66668;BME280;57205;51.438;-2.006;2023-07-13T01:38:24;100819.34;;;14.41;100.00
66668;BME280;57205;51.438;-2.006;2023-07-13T01:40:52;100817.72;;;14.40;100.00
66668;BME280;57205;51.438;-2.006;2023-07-13T01:43:18;100826.09;;;14.39;100.00
66668;BME280;57205;51.438;-2.006;2023-07-13T01:45:44;100817.50;;;14.37;100.00
66668;BME280;57205;51.438;-2.006;2023-07-13T01:48:11;100820.47;;;14.35;100.00
66668;BME280;57205;51.438;-2.006;2023-07-13T01:50:36;100822.69;;;14.28;100.00
66668;BME280;57205;51.438;-2.006;2023-07-13T01:53:02;100824.31;;;14.24;100.00
66668;BME280;57205;51.438;-2.006;2023-07-13T01:55:28;100818.47;;;14.17;100.00
66668;BME280;57205;51.438;-2.006;2023-07-13T01:57:54;100823.88;;;14.12;100.00
66668;BME280;57205;51.438;-2.006;2023-07-13T02:00:19;100817.19;;;14.10;100.00
66668;BME280;57205;51.438;-2.006;2023-07-13T02:02:45;100830.13;;;14.08;100.00
66668;BME280;57205;51.438;-2.006;2023-07-13T02:05:12;100826.63;;;14.07;100.00
66668;BME280;57205;51.438;-2.006;2023-07-13T02:07:38;100829.31;;;14.07;100.00
66668;BME280;57205;51.438;-2.006;2023-07-13T02:10:05;100824.44;;;14.09;100.00
66668;BME280;57205;51.438;-2.006;2023-07-13T02:12:31;100819.88;;;14.10;100.00
66668;BME280;57205;51.438;-2.006;2023-07-13T02:14:56;100823.63;;;14.14;100.00
66668;BME280;57205;51.438;-2.006;2023-07-13T02:17:22;100829.78;;;14.14;100.00
66668;BME280;57205;51.438;-2.006;2023-07-13T02:19:47;100820.63;;;14.15;100.00
66668;BME280;57205;51.438;-2.006;2023-07-13T02:22:13;100820.13;;;14.13;100.00
66668;BME280;57205;51.438;-2.006;2023-07-13T02:24:38;100826.56;;;14.12;100.00
66668;BME280;57205;51.438;-2.006;2023-07-13T02:27:04;100815.28;;;14.10;100.00
66668;BME280;57205;51.438;-2.006;2023-07-13T02:29:29;100816.38;;;14.09;100.00
66668;BME280;57205;51.438;-2.006;2023-07-13T02:31:55;100815.91;;;14.02;100.00
66668;BME280;57205;51.438;-2.006;2023-07-13T02:34:20;100818.13;;;13.95;100.00
66668;BME280;57205;51.438;-2.006;2023-07-13T02:36:46;100815.16;;;13.92;100.00
66668;BME280;57205;51.438;-2.006;2023-07-13T02:39:12;100817.34;;;13.90;100.00
66668;BME280;57205;51.438;-2.006;2023-07-13T02:41:39;100821.41;;;13.87;100.00
66668;BME280;57205;51.438;-2.006;2023-07-13T02:44:04;100821.69;;;13.86;100.00
66668;BME280;57205;51.438;-2.006;2023-07-13T02:46:31;100823.03;;;13.83;100.00
66668;BME280;57205;51.438;-2.006;2023-07-13T02:48:56;100818.22;;;13.80;100.00
66668;BME280;57205;51.438;-2.006;2023-07-13T02:51:22;100822.00;;;13.79;100.00
66668;BME280;57205;51.438;-2.006;2023-07-13T02:53:47;100824.13;;;13.82;100.00
66668;BME280;57205;51.438;-2.006;2023-07-13T02:56:12;100825.72;;;13.83;100.00
66668;BME280;57205;51.438;-2.006;2023-07-13T02:58:38;100820.88;;;13.85;100.00
66668;BME280;57205;51.438;-2.006;2023-07-13T03:01:08;100818.75;;;13.82;100.00
66668;BME280;57205;51.438;-2.006;2023-07-13T03:03:34;100819.81;;;13.81;100.00
66668;BME280;57205;51.438;-2.006;2023-07-13T03:06:01;100829.00;;;13.80;100.00
66668;BME280;57205;51.438;-2.006;2023-07-13T03:08:28;100818.25;;;13.75;100.00
66668;BME280;57205;51.438;-2.006;2023-07-13T03:11:06;100819.09;;;13.70;100.00
66668;BME280;57205;51.438;-2.006;2023-07-13T03:13:32;100821.03;;;13.65;100.00
66668;BME280;57205;51.438;-2.006;2023-07-13T03:15:58;100819.41;;;13.64;100.00
66668;BME280;57205;51.438;-2.006;2023-07-13T03:18:25;100819.97;;;13.61;100.00
66668;BME280;57205;51.438;-2.006;2023-07-13T03:20:51;100821.59;;;13.57;100.00
66668;BME280;57205;51.438;-2.006;2023-07-13T03:23:18;100828.63;;;13.53;100.00
66668;BME280;57205;51.438;-2.006;2023-07-13T03:25:44;100826.78;;;13.48;100.00
66668;BME280;57205;51.438;-2.006;2023-07-13T03:28:10;100833.78;;;13.44;100.00
66668;BME280;57205;51.438;-2.006;2023-07-13T03:30:36;100842.41;;;13.41;100.00
66668;BME280;57205;51.438;-2.006;2023-07-13T03:33:01;100833.00;;;13.39;100.00
66668;BME280;57205;51.438;-2.006;2023-07-13T03:35:27;100838.38;;;13.39;100.00
66668;BME280;57205;51.438;-2.006;2023-07-13T03:37:52;100843.75;;;13.39;100.00
66668;BME280;57205;51.438;-2.006;2023-07-13T03:40:18;100842.13;;;13.38;100.00
66668;BME280;57205;51.438;-2.006;2023-07-13T03:42:43;100842.13;;;13.38;100.00
66668;BME280;57205;51.438;-2.006;2023-07-13T03:45:09;100849.94;;;13.39;100.00
66668;BME280;57205;51.438;-2.006;2023-07-13T03:47:34;100851.28;;;13.37;100.00
66668;BME280;57205;51.438;-2.006;2023-07-13T03:50:00;100839.97;;;13.40;100.00
66668;BME280;57205;51.438;-2.006;2023-07-13T03:52:25;100844.28;;;13.36;100.00
66668;BME280;57205;51.438;-2.006;2023-07-13T03:54:51;100850.75;;;13.35;100.00
66668;BME280;57205;51.438;-2.006;2023-07-13T03:57:16;100847.03;;;13.31;100.00
66668;BME280;57205;51.438;-2.006;2023-07-13T03:59:41;100848.41;;;13.28;100.00
66668;BME280;57205;51.438;-2.006;2023-07-13T04:02:07;100846.22;;;13.25;100.00
66668;BME280;57205;51.438;-2.006;2023-07-13T04:04:32;100850.00;;;13.24;100.00
66668;BME280;57205;51.438;-2.006;2023-07-13T04:06:58;100850.31;;;13.23;100.00
66668;BME280;57205;51.438;-2.006;2023-07-13T04:09:24;100851.38;;;13.22;100.00
66668;BME280;57205;51.438;-2.006;2023-07-13T04:11:50;100857.00;;;13.20;100.00
66668;BME280;57205;51.438;-2.006;2023-07-13T04:14:15;100860.50;;;13.21;100.00
66668;BME280;57205;51.438;-2.006;2023-07-13T04:16:41;100857.53;;;13.17;100.00
66668;BME280;57205;51.438;-2.006;2023-07-13T04:19:07;100859.16;;;13.18;100.00
66668;BME280;57205;51.438;-2.006;2023-07-13T04:21:33;100865.59;;;13.22;100.00
66668;BME280;57205;51.438;-2.006;2023-07-13T04:23:58;100866.66;;;13.26;100.00
66668;BME280;57205;51.438;-2.006;2023-07-13T04:26:24;100870.94;;;13.27;100.00
66668;BME280;57205;51.438;-2.006;2023-07-13T04:28:50;100866.34;;;13.33;100.00
66668;BME280;57205;51.438;-2.006;2023-07-13T04:31:17;100874.91;;;13.40;100.00
66668;BME280;57205;51.438;-2.006;2023-07-13T04:33:43;100872.75;;;13.47;100.00
66668;BME280;57205;51.438;-2.006;2023-07-13T04:36:09;100881.03;;;13.55;100.00
66668;BME280;57205;51.438;-2.006;2023-07-13T04:38:36;100881.53;;;13.62;100.00
66668;BME280;57205;51.438;-2.006;2023-07-13T04:41:04;100875.84;;;13.69;100.00
66668;BME280;57205;51.438;-2.006;2023-07-13T04:43:30;100885.75;;;13.73;100.00
66668;BME280;57205;51.438;-2.006;2023-07-13T04:45:57;100880.63;;;13.82;100.00
66668;BME280;57205;51.438;-2.006;2023-07-13T04:48:23;100875.16;;;13.92;100.00
66668;BME280;57205;51.438;-2.006;2023-07-13T04:50:55;100878.84;;;14.01;100.00
66668;BME280;57205;51.438;-2.006;2023-07-13T04:53:21;100876.63;;;14.13;100.00
66668;BME280;57205;51.438;-2.006;2023-07-13T04:55:46;100883.00;;;14.22;100.00
66668;BME280;57205;51.438;-2.006;2023-07-13T04:58:12;100873.28;;;14.31;100.00
66668;BME280;57205;51.438;-2.006;2023-07-13T05:00:38;100864.59;;;14.39;100.00
66668;BME280;57205;51.438;-2.006;2023-07-13T05:03:04;100863.97;;;14.47;100.00
66668;BME280;57205;51.438;-2.006;2023-07-13T05:05:30;100871.97;;;14.57;100.00
66668;BME280;57205;51.438;-2.006;2023-07-13T05:07:55;100870.47;;;14.70;100.00
66668;BME280;57205;51.438;-2.006;2023-07-13T05:10:22;100871.44;;;14.84;100.00
66668;BME280;57205;51.438;-2.006;2023-07-13T05:12:47;100869.13;;;14.96;100.00
66668;BME280;57205;51.438;-2.006;2023-07-13T05:15:13;100871.41;;;15.08;100.00
66668;BME280;57205;51.438;-2.006;2023-07-13T05:17:39;100862.78;;;15.53;100.00
66668;BME280;57205;51.438;-2.006;2023-07-13T05:20:07;100855.03;;;16.02;100.00
66668;BME280;57205;51.438;-2.006;2023-07-13T05:22:32;100840.69;;;16.20;100.00
66668;BME280;57205;51.438;-2.006;2023-07-13T05:25:00;100842.13;;;16.31;100.00
66668;BME280;57205;51.438;-2.006;2023-07-13T05:27:26;100837.22;;;16.33;100.00
66668;BME280;57205;51.438;-2.006;2023-07-13T05:29:51;100844.16;;;16.72;100.00
66668;BME280;57205;51.438;-2.006;2023-07-13T05:32:18;100834.09;;;17.26;100.00
66668;BME280;57205;51.438;-2.006;2023-07-13T05:34:43;100821.88;;;17.78;100.00
66668;BME280;57205;51.438;-2.006;2023-07-13T05:37:09;100822.13;;;18.12;100.00
66668;BME280;57205;51.438;-2.006;2023-07-13T05:39:34;100824.13;;;18.29;100.00
66668;BME280;57205;51.438;-2.006;2023-07-13T05:42:00;100825.75;;;18.30;100.00
66668;BME280;57205;51.438;-2.006;2023-07-13T05:44:25;100832.31;;;18.15;100.00
66668;BME280;57205;51.438;-2.006;2023-07-13T05:46:51;100828.59;;;18.03;100.00
66668;BME280;57205;51.438;-2.006;2023-07-13T05:49:16;100835.16;;;17.66;100.00
66668;BME280;57205;51.438;-2.006;2023-07-13T05:51:42;100846.63;;;17.49;100.00
66668;BME280;57205;51.438;-2.006;2023-07-13T05:54:07;100846.72;;;17.31;100.00
66668;BME280;57205;51.438;-2.006;2023-07-13T05:56:33;100863.06;;;17.26;100.00
66668;BME280;57205;51.438;-2.006;2023-07-13T05:58:58;100863.66;;;17.50;100.00
66668;BME280;57205;51.438;-2.006;2023-07-13T06:01:23;100864.81;;;17.93;100.00
66668;BME280;57205;51.438;-2.006;2023-07-13T06:03:49;100861.81;;;18.61;100.00
66668;BME280;57205;51.438;-2.006;2023-07-13T06:06:15;100868.38;;;19.64;100.00
66668;BME280;57205;51.438;-2.006;2023-07-13T06:08:41;100854.25;;;20.48;100.00
66668;BME280;57205;51.438;-2.006;2023-07-13T06:11:14;100856.59;;;20.66;100.00
66668;BME280;57205;51.438;-2.006;2023-07-13T06:13:40;100858.16;;;20.38;100.00
66668;BME280;57205;51.438;-2.006;2023-07-13T06:16:05;100861.53;;;20.18;100.00
66668;BME280;57205;51.438;-2.006;2023-07-13T06:18:33;100859.78;;;19.88;100.00
66668;BME280;57205;51.438;-2.006;2023-07-13T06:20:59;100864.38;;;19.53;100.00
66668;BME280;57205;51.438;-2.006;2023-07-13T06:23:25;100867.00;;;19.19;100.00
66668;BME280;57205;51.438;-2.006;2023-07-13T06:25:51;100870.81;;;18.79;100.00
66668;BME280;57205;51.438;-2.006;2023-07-13T06:28:16;100875.88;;;18.41;100.00
66668;BME280;57205;51.438;-2.006;2023-07-13T06:30:42;100882.63;;;18.08;100.00
66668;BME280;57205;51.438;-2.006;2023-07-13T06:33:07;100887.31;;;17.80;100.00
66668;BME280;57205;51.438;-2.006;2023-07-13T06:35:33;100894.00;;;17.61;100.00
66668;BME280;57205;51.438;-2.006;2023-07-13T06:37:59;100899.31;;;17.38;100.00
66668;BME280;57205;51.438;-2.006;2023-07-13T06:40:25;100920.34;;;17.28;100.00
66668;BME280;57205;51.438;-2.006;2023-07-13T06:42:51;100927.06;;;17.17;100.00
66668;BME280;57205;51.438;-2.006;2023-07-13T06:45:17;100927.88;;;17.17;100.00
66668;BME280;57205;51.438;-2.006;2023-07-13T06:47:42;100935.16;;;17.17;100.00
66668;BME280;57205;51.438;-2.006;2023-07-13T06:50:08;100931.19;;;17.14;100.00
66668;BME280;57205;51.438;-2.006;2023-07-13T06:52:41;100942.09;;;17.09;100.00
66668;BME280;57205;51.438;-2.006;2023-07-13T06:55:07;100949.56;;;16.99;100.00
66668;BME280;57205;51.438;-2.006;2023-07-13T06:57:33;100940.56;;;16.90;100.00
66668;BME280;57205;51.438;-2.006;2023-07-13T06:59:58;100951.06;;;16.78;100.00
66668;BME280;57205;51.438;-2.006;2023-07-13T07:02:24;100952.31;;;16.67;100.00
66668;BME280;57205;51.438;-2.006;2023-07-13T07:04:49;100955.19;;;16.56;100.00
66668;BME280;57205;51.438;-2.006;2023-07-13T07:07:15;100958.19;;;16.55;100.00
66668;BME280;57205;51.438;-2.006;2023-07-13T07:09:41;100956.66;;;16.49;100.00
66668;BME280;57205;51.438;-2.006;2023-07-13T07:12:06;100956.88;;;16.52;100.00
66668;BME280;57205;51.438;-2.006;2023-07-13T07:14:32;100961.44;;;16.71;100.00
66668;BME280;57205;51.438;-2.006;2023-07-13T07:16:59;100963.50;;;16.92;100.00
66668;BME280;57205;51.438;-2.006;2023-07-13T07:19:25;100966.84;;;17.30;100.00
66668;BME280;57205;51.438;-2.006;2023-07-13T07:21:50;100955.16;;;18.11;100.00
66668;BME280;57205;51.438;-2.006;2023-07-13T07:24:16;100940.97;;;19.02;100.00
66668;BME280;57205;51.438;-2.006;2023-07-13T07:26:41;100932.59;;;19.77;100.00
66668;BME280;57205;51.438;-2.006;2023-07-13T07:29:07;100928.56;;;20.77;100.00
66668;BME280;57205;51.438;-2.006;2023-07-13T07:31:32;100922.06;;;21.74;100.00
66668;BME280;57205;51.438;-2.006;2023-07-13T07:33:57;100914.63;;;22.24;100.00
66668;BME280;57205;51.438;-2.006;2023-07-13T07:36:23;100920.03;;;22.33;100.00
66668;BME280;57205;51.438;-2.006;2023-07-13T07:38:48;100921.81;;;22.29;100.00
66668;BME280;57205;51.438;-2.006;2023-07-13T07:41:14;100913.44;;;22.13;100.00
66668;BME280;57205;51.438;-2.006;2023-07-13T07:43:39;100915.25;;;21.89;100.00
66668;BME280;57205;51.438;-2.006;2023-07-13T07:46:05;100928.75;;;21.56;100.00
66668;BME280;57205;51.438;-2.006;2023-07-13T07:48:31;100931.97;;;21.20;100.00
66668;BME280;57205;51.438;-2.006;2023-07-13T07:50:56;100935.63;;;20.78;100.00
66668;BME280;57205;51.438;-2.006;2023-07-13T07:53:22;100943.66;;;20.40;100.00
66668;BME280;57205;51.438;-2.006;2023-07-13T07:55:48;100947.69;;;20.17;100.00
66668;BME280;57205;51.438;-2.006;2023-07-13T07:58:13;100952.41;;;19.86;100.00
66668;BME280;57205;51.438;-2.006;2023-07-13T08:00:39;100956.06;;;19.56;100.00
66668;BME280;57205;51.438;-2.006;2023-07-13T08:03:04;100954.84;;;19.31;100.00
66668;BME280;57205;51.438;-2.006;2023-07-13T08:05:29;100950.44;;;19.13;100.00
66668;BME280;57205;51.438;-2.006;2023-07-13T08:07:55;100955.78;;;18.96;100.00
66668;BME280;57205;51.438;-2.006;2023-07-13T08:10:20;100962.41;;;18.82;100.00
66668;BME280;57205;51.438;-2.006;2023-07-13T08:12:46;100955.72;;;18.88;100.00
66668;BME280;57205;51.438;-2.006;2023-07-13T08:15:15;100956.66;;;18.83;100.00
66668;BME280;57205;51.438;-2.006;2023-07-13T08:17:41;100958.06;;;18.81;100.00
66668;BME280;57205;51.438;-2.006;2023-07-13T08:20:07;100950.75;;;18.81;100.00
66668;BME280;57205;51.438;-2.006;2023-07-13T08:22:34;100953.63;;;18.85;100.00
66668;BME280;57205;51.438;-2.006;2023-07-13T08:25:00;100958.13;;;18.89;100.00
66668;BME280;57205;51.438;-2.006;2023-07-13T08:27:27;100960.22;;;18.92;100.00
66668;BME280;57205;51.438;-2.006;2023-07-13T08:29:53;100963.41;;;18.94;100.00
66668;BME280;57205;51.438;-2.006;2023-07-13T08:32:20;100956.38;;;18.93;100.00
66668;BME280;57205;51.438;-2.006;2023-07-13T08:34:46;100959.03;;;18.76;100.00
66668;BME280;57205;51.438;-2.006;2023-07-13T08:37:12;100957.97;;;18.64;100.00
66668;BME280;57205;51.438;-2.006;2023-07-13T08:39:38;100965.63;;;18.62;100.00
66668;BME280;57205;51.438;-2.006;2023-07-13T08:42:26;100959.09;;;18.63;100.00
66668;BME280;57205;51.438;-2.006;2023-07-13T08:45:18;100971.41;;;18.69;100.00
66668;BME280;57205;51.438;-2.006;2023-07-13T08:47:54;100970.59;;;18.68;100.00
66668;BME280;57205;51.438;-2.006;2023-07-13T08:50:26;100970.94;;;18.75;100.00
66668;BME280;57205;51.438;-2.006;2023-07-13T08:52:54;100973.50;;;18.72;100.00
66668;BME280;57205;51.438;-2.006;2023-07-13T08:55:22;100966.28;;;18.67;100.00
66668;BME280;57205;51.438;-2.006;2023-07-13T08:58:01;100973.63;;;18.67;100.00
66668;BME280;57205;51.438;-2.006;2023-07-13T09:00:51;100973.34;;;18.77;100.00
66668;BME280;57205;51.438;-2.006;2023-07-13T09:03:22;100983.72;;;18.97;100.00
66668;BME280;57205;51.438;-2.006;2023-07-13T09:05:53;100966.72;;;19.13;100.00
66668;BME280;57205;51.438;-2.006;2023-07-13T09:08:51;100975.81;;;19.57;100.00
66668;BME280;57205;51.438;-2.006;2023-07-13T09:14:04;100955.47;;;20.10;100.00
66668;BME280;57205;51.438;-2.006;2023-07-13T09:16:33;100952.16;;;20.22;100.00
66668;BME280;57205;51.438;-2.006;2023-07-13T09:19:04;100950.41;;;20.17;100.00
66668;BME280;57205;51.438;-2.006;2023-07-13T09:21:37;100953.72;;;20.14;100.00
66668;BME280;57205;51.438;-2.006;2023-07-13T09:24:29;100952.13;;;19.96;100.00
66668;BME280;57205;51.438;-2.006;2023-07-13T09:26:57;100965.03;;;19.74;100.00
66668;BME280;57205;51.438;-2.006;2023-07-13T09:29:29;100967.84;;;19.52;100.00
66668;BME280;57205;51.438;-2.006;2023-07-13T09:31:57;100968.78;;;19.16;100.00
66668;BME280;57205;51.438;-2.006;2023-07-13T09:34:25;100971.06;;;18.92;100.00
66668;BME280;57205;51.438;-2.006;2023-07-13T09:36:51;100967.16;;;18.76;100.00
66668;BME280;57205;51.438;-2.006;2023-07-13T09:42:11;100965.44;;;18.80;100.00
66668;BME280;57205;51.438;-2.006;2023-07-13T09:47:18;100961.13;;;19.49;100.00
66668;BME280;57205;51.438;-2.006;2023-07-13T09:49:44;100955.47;;;19.93;100.00
66668;BME280;57205;51.438;-2.006;2023-07-13T09:52:15;100950.38;;;20.34;100.00
66668;BME280;57205;51.438;-2.006;2023-07-13T09:54:46;100952.94;;;20.48;100.00
66668;BME280;57205;51.438;-2.006;2023-07-13T09:57:19;100955.00;;;20.60;100.00
66668;BME280;57205;51.438;-2.006;2023-07-13T09:59:50;100949.88;;;20.75;100.00
66668;BME280;57205;51.438;-2.006;2023-07-13T10:02:23;100958.47;;;20.86;100.00
66668;BME280;57205;51.438;-2.006;2023-07-13T10:04:55;100961.84;;;21.38;100.00
66668;BME280;57205;51.438;-2.006;2023-07-13T10:07:22;100950.38;;;22.44;100.00
66668;BME280;57205;51.438;-2.006;2023-07-13T10:09:52;100941.25;;;23.05;100.00
66668;BME280;57205;51.438;-2.006;2023-07-13T10:12:19;100947.75;;;23.12;100.00
66668;BME280;57205;51.438;-2.006;2023-07-13T10:14:44;100940.94;;;23.18;100.00
66668;BME280;57205;51.438;-2.006;2023-07-13T10:17:12;100945.47;;;23.26;100.00
66668;BME280;57205;51.438;-2.006;2023-07-13T10:19:41;100938.69;;;23.57;100.00
66668;BME280;57205;51.438;-2.006;2023-07-13T10:22:25;100939.78;;;24.04;100.00
66668;BME280;57205;51.438;-2.006;2023-07-13T10:24:53;100933.56;;;24.19;100.00
66668;BME280;57205;51.438;-2.006;2023-07-13T10:27:24;100931.06;;;24.42;100.00
66668;BME280;57205;51.438;-2.006;2023-07-13T10:30:11;100938.13;;;24.70;99.42
66668;BME280;57205;51.438;-2.006;2023-07-13T10:32:38;100941.00;;;24.89;97.79
66668;BME280;57205;51.438;-2.006;2023-07-13T10:35:04;100941.59;;;24.83;91.03
66668;BME280;57205;51.438;-2.006;2023-07-13T10:37:39;100936.41;;;24.50;90.83
66668;BME280;57205;51.438;-2.006;2023-07-13T10:40:13;100938.16;;;24.03;97.79
66668;BME280;57205;51.438;-2.006;2023-07-13T10:42:42;100933.31;;;23.72;100.00
66668;BME280;57205;51.438;-2.006;2023-07-13T10:45:17;100947.59;;;23.30;100.00
66668;BME280;57205;51.438;-2.006;2023-07-13T10:47:44;100947.59;;;22.85;100.00
66668;BME280;57205;51.438;-2.006;2023-07-13T10:50:23;100967.22;;;22.46;100.00
66668;BME280;57205;51.438;-2.006;2023-07-13T10:53:03;100964.44;;;21.92;100.00
66668;BME280;57205;51.438;-2.006;2023-07-13T10:56:03;100966.59;;;21.49;100.00
66668;BME280;57205;51.438;-2.006;2023-07-13T10:58:43;100977.69;;;21.35;100.00
66668;BME280;57205;51.438;-2.006;2023-07-13T11:03:56;100978.03;;;21.34;100.00
66668;BME280;57205;51.438;-2.006;2023-07-13T11:08:58;100971.59;;;21.01;100.00
66668;BME280;57205;51.438;-2.006;2023-07-13T11:18:45;100993.31;;;19.81;100.00
66668;BME280;57205;51.438;-2.006;2023-07-13T11:21:19;100988.81;;;19.68;100.00
66668;BME280;57205;51.438;-2.006;2023-07-13T11:24:47;100992.97;;;19.74;100.00
66668;BME280;57205;51.438;-2.006;2023-07-13T11:32:31;100969.91;;;20.19;100.00
66668;BME280;57205;51.438;-2.006;2023-07-13T11:34:57;100968.78;;;20.37;100.00
66668;BME280;57205;51.438;-2.006;2023-07-13T11:37:23;100971.97;;;20.57;100.00
66668;BME280;57205;51.438;-2.006;2023-07-13T11:39:51;100965.22;;;20.80;100.00
66668;BME280;57205;51.438;-2.006;2023-07-13T11:42:18;100958.00;;;21.01;100.00
66668;BME280;57205;51.438;-2.006;2023-07-13T11:44:48;100959.63;;;21.31;100.00
66668;BME280;57205;51.438;-2.006;2023-07-13T11:47:18;100966.16;;;21.68;100.00
66668;BME280;57205;51.438;-2.006;2023-07-13T11:49:50;100952.28;;;22.10;100.00
66668;BME280;57205;51.438;-2.006;2023-07-13T11:52:20;100951.25;;;22.56;100.00
66668;BME280;57205;51.438;-2.006;2023-07-13T11:54:52;100939.25;;;22.69;100.00
66668;BME280;57205;51.438;-2.006;2023-07-13T11:57:28;100935.41;;;22.82;100.00
66668;BME280;57205;51.438;-2.006;2023-07-13T11:59:55;100940.34;;;23.01;100.00
66668;BME280;57205;51.438;-2.006;2023-07-13T12:02:29;100933.97;;;23.21;95.32
66668;BME280;57205;51.438;-2.006;2023-07-13T12:04:55;100923.72;;;23.06;96.17
66668;BME280;57205;51.438;-2.006;2023-07-13T12:07:22;100917.69;;;22.88;95.06
66668;BME280;57205;51.438;-2.006;2023-07-13T12:09:48;100922.56;;;22.83;94.31
66668;BME280;57205;51.438;-2.006;2023-07-13T12:12:22;100925.72;;;22.73;100.00
66668;BME280;57205;51.438;-2.006;2023-07-13T12:14:51;100913.13;;;22.68;100.00
66668;BME280;57205;51.438;-2.006;2023-07-13T12:17:23;100920.44;;;22.56;98.03
66668;BME280;57205;51.438;-2.006;2023-07-13T12:19:51;100922.28;;;22.64;100.00
66668;BME280;57205;51.438;-2.006;2023-07-13T12:22:19;100912.09;;;22.73;100.00
66668;BME280;57205;51.438;-2.006;2023-07-13T12:24:46;100922.13;;;22.81;100.00
66668;BME280;57205;51.438;-2.006;2023-07-13T12:27:26;100913.81;;;22.77;98.78
66668;BME280;57205;51.438;-2.006;2023-07-13T12:30:03;100924.16;;;22.72;98.83
66668;BME280;57205;51.438;-2.006;2023-07-13T12:32:31;100934.66;;;22.08;100.00
66668;BME280;57205;51.438;-2.006;2023-07-13T12:35:15;100932.53;;;21.64;100.00
66668;BME280;57205;51.438;-2.006;2023-07-13T12:37:43;100936.31;;;21.21;100.00
66668;BME280;57205;51.438;-2.006;2023-07-13T12:40:14;100937.06;;;20.84;100.00
66668;BME280;57205;51.438;-2.006;2023-07-13T12:42:40;100942.81;;;20.83;100.00
66668;BME280;57205;51.438;-2.006;2023-07-13T12:45:27;100941.88;;;20.79;100.00
66668;BME280;57205;51.438;-2.006;2023-07-13T12:48:14;100934.66;;;20.83;100.00
66668;BME280;57205;51.438;-2.006;2023-07-13T12:50:42;100930.81;;;20.84;100.00
66668;BME280;57205;51.438;-2.006;2023-07-13T12:53:29;100926.59;;;21.03;100.00
66668;BME280;57205;51.438;-2.006;2023-07-13T12:56:01;100939.91;;;21.05;100.00
66668;BME280;57205;51.438;-2.006;2023-07-13T12:58:29;100935.38;;;21.09;100.00
66668;BME280;57205;51.438;-2.006;2023-07-13T13:00:57;100931.53;;;21.10;100.00